Etusivu
METAR-TAF:

METAR-TAF

Lentoasemat :

Toncontínin kansainvälinen lentoasema

Tegucigalpa, Honduras

Leveyspiiri: 14-03N, Pituuspiiri: 087-13W, korkeus merenpinnasta: 994 m

Tämänhetkinen sää

Tämä raportti tehtiin 52 minuuttia sitten, kello 15.00 UTC
Tuuli 4 kn idästä
Lämpötila 24°C
Kosteus 61%
Ilmanpaine 1021 hPa
Näkyvyys: 8000 m
Muutamia pilviä 2800 ft:n korkeudessa
Hajanaisia pilviä 25000 ft:n korkeudessa

METAR: MHTG 231500Z 10004KT 8000 FEW028 SCT250 24/16 Q1021 A3015 NOSIG

Aika: 09:52 (15:52 UTC)

Sääennuste

Tämä raportti tehtiin 5 tuntia ja 47 minuuttia sitten, kello 10.05 UTC
Ennuste voimassa 23. päivästä klo 12 UTC - 24. päivään klo 12 UTC
Tuuli 6 kn koillisesta
Näkyvyys 10 km tai enemmän
Hajanaisia pilviä 2600 ft:n korkeudessa
Tulossa
24. päivästä klo 07 UTC - 24. päivään klo 09 UTC
Tuuli kn pohjoisesta
Hajonneita pilviä 2600 ft:n korkeudessa

TAF: MHTG 231005Z 2312/2412 04006KT 9999 SCT026 TX30/2321Z TN18/2412Z BECMG 2407/2409 00000KT BKN026

Säähavainnot ja -ennusteet yli 4000 lentoasemalta (METAR- ja TAF-raportit).

Käytössä olevat sääasemat on merkitty karttaan keltaisilla ja punaisilla pisteillä.

Aseta hiiri pisteen päälle nähdäksesi sääaseman nimen.

Klikkaa sitten nähdäksesi säähavainnot ja -ennusteet.

Kartan vaihtaminen: klikkaa mustalla rastilla varustettuja vihreitä pisteitä, niin voit zoomata sisään; viivalla varustettua vihreää pistettä, niin voit zoomata ulos tai vihreitä nuolia, niin pääset viereisille kartoille.


METAR-TAF: